»·PEaware :: N107MR KSEA-CYVR

N107MR :: KSEA-CYVR

FLIGHT INFORMATION

Flight Status: Arrived
Operator: Privately registered:
United States
More flights under this callsign
Pilot: Michael R. (16974)
Aircraft: ECLIPSE 500
(EA50)
More flights by this aircraft type
Origin: KSEA Seattle-Tacoma Intl
United States
Destination: CYVR Vancouver Intl
Canada
More flights between these airports :: More routes between these airports
Route: +SEA6 PAE GRIZZ5
File this flight plan on PilotEdge
Remarks:
Altitude:
(Current/Filed)
14,000ft
Speed:
(Current/Filed)
350kts
Departed: 15-Jan-18 12:37 PM
Arrived: 15-Jan-18 01:15 PM
Distance/Time
Traveled:
109nm/0:38
Distance/Time
To Go:
Arrived

Flight Plot

Page will automatically refresh every two minutes.

Flight plan parsing failed; only flown route is shown


Map Options




Map Legend


Flown Route
Filed Route
Departure Airport
Arrival Airport
Navaid (VOR, NDB)
Fix

Horizontal Profiles

Position Reports

Time Latitude Longitude Heading Altitude Ground
Speed
15-Jan-18 12:19 47.439174 -122.315216 55 347ft 0kts
15-Jan-18 12:20 47.439174 -122.315216 55 347ft 0kts
15-Jan-18 12:21 47.439174 -122.315216 55 347ft 0kts
15-Jan-18 12:22 47.439174 -122.315216 55 347ft 0kts
15-Jan-18 12:23 47.439175 -122.315216 55 347ft 0kts
15-Jan-18 12:24 47.439175 -122.315216 55 347ft 0kts
15-Jan-18 12:25 47.439175 -122.315216 55 347ft 0kts
15-Jan-18 12:26 47.439175 -122.315216 55 347ft 0kts
15-Jan-18 12:27 47.439175 -122.315216 55 347ft 0kts
15-Jan-18 12:28 47.439175 -122.315216 55 347ft 0kts
15-Jan-18 12:29 47.439175 -122.315216 55 347ft 0kts
15-Jan-18 12:30 47.439175 -122.315216 55 347ft 0kts
15-Jan-18 12:31 47.439175 -122.315216 55 347ft 0kts
15-Jan-18 12:32 47.439175 -122.315216 55 347ft 0kts
15-Jan-18 12:33 47.439609 -122.313836 47 352ft 10kts
15-Jan-18 12:34 47.445136 -122.313558 0 373ft 29kts
15-Jan-18 12:35 47.454909 -122.313485 2 392ft 39kts
15-Jan-18 12:36 47.463289 -122.313414 12 370ft 17kts
15-Jan-18 12:37 47.463668 -122.312325 91 375ft 0kts
15-Jan-18 12:38 47.463668 -122.312325 91 375ft 0kts
15-Jan-18 12:39 47.463668 -122.312325 91 375ft 0kts
15-Jan-18 12:40 47.463668 -122.312325 91 375ft 0kts
15-Jan-18 12:41 47.463668 -122.312310 90 375ft 1kts
15-Jan-18 12:42 47.462599 -122.310980 178 391ft 0kts
15-Jan-18 12:43 47.444974 -122.310392 179 601ft 138kts
15-Jan-18 12:44 47.402678 -122.313187 190 1724ft 151kts
15-Jan-18 12:45 47.364484 -122.313959 138 3479ft 122kts
15-Jan-18 12:46 47.356523 -122.266591 88 5154ft 127kts
15-Jan-18 12:47 47.365936 -122.208989 85 6353ft 138kts
15-Jan-18 12:48 47.383566 -122.183015 321 8099ft 109kts
15-Jan-18 12:49 47.415657 -122.196960 348 9110ft 161kts
15-Jan-18 12:50 47.468541 -122.210600 349 9972ft 232kts
15-Jan-18 12:51 47.518990 -122.281571 311 11185ft 284kts
15-Jan-18 12:52 47.589608 -122.334534 18 12392ft 319kts
15-Jan-18 12:53 47.679366 -122.317634 7 13594ft 336kts
15-Jan-18 12:54 47.771823 -122.302652 8 14758ft 339kts
15-Jan-18 12:55 47.865789 -122.289408 352 14814ft 345kts
15-Jan-18 12:56 47.951584 -122.349896 331 14158ft 340kts
15-Jan-18 12:57 48.014038 -122.446553 299 14021ft 329kts
15-Jan-18 12:58 48.065721 -122.559456 300 13986ft 328kts
15-Jan-18 12:59 48.115178 -122.667465 299 13968ft 328kts
15-Jan-18 13:00 48.166626 -122.779597 299 13969ft 330kts
15-Jan-18 13:01 48.218507 -122.892555 299 13968ft 329kts
15-Jan-18 13:02 48.270414 -123.005732 299 14010ft 329kts
15-Jan-18 13:03 48.328689 -123.108027 329 13981ft 340kts
15-Jan-18 13:04 48.409683 -123.180376 325 13982ft 339kts
15-Jan-18 13:05 48.488600 -123.256505 324 14054ft 340kts
15-Jan-18 13:06 48.570912 -123.323896 0 14016ft 342kts
15-Jan-18 13:07 48.663672 -123.300967 14 14022ft 343kts
15-Jan-18 13:08 48.754877 -123.269425 15 13234ft 334kts
15-Jan-18 13:09 48.844515 -123.236492 15 12064ft 329kts
15-Jan-18 13:10 48.932055 -123.203775 15 10897ft 322kts
15-Jan-18 13:11 49.004141 -123.249179 288 9681ft 300kts
15-Jan-18 13:12 49.037249 -123.362017 289 8505ft 276kts
15-Jan-18 13:13 49.067850 -123.464752 296 7326ft 255kts
15-Jan-18 13:14 49.122505 -123.515368 335 6176ft 234kts
15-Jan-18 13:15 49.184054 -123.518826 7 4978ft 218kts
15-Jan-18 13:16 49.214134 -123.463435 80 3793ft 185kts
15-Jan-18 13:17 49.210528 -123.384691 102 2991ft 202kts
15-Jan-18 13:18 49.201499 -123.308210 102 2265ft 169kts
15-Jan-18 13:19 49.193769 -123.238716 98 438ft 146kts
15-Jan-18 13:20 49.187442 -123.185300 100 13ft 96kts
15-Jan-18 13:21 49.185038 -123.168782 182 10ft 14kts
15-Jan-18 13:22 49.182634 -123.171346 270 10ft 7kts
15-Jan-18 13:23 49.181353 -123.171244 112 10ft 0kts
15-Jan-18 13:24 49.181353 -123.171244 112 10ft 0kts

Navigation Log

Ident Type
Flight plan parsing failed, navigation log unavailable